Kyokaimaru No.75 — JL6374 — position and weather

sailwx.info

Track history (hours):
 
Tides and Currents Weather Stations Pressure Air Temp Water Temp Dewpoint Dewpoint Depression Visibility Wind Speed Wind Dir Waves Ship Positions

Kyokaimaru No.75

Last reported at 2017-Oct-08 07:26 UTC. Time now 2017-Oct-20 01:30 UTC.
Position N 34°37' E 134°58'.
Warning: this ship's position is 11 days out of date.

Length 68 m; draft 3.8 m.

Type: Tanker. MMSI: 431400692.

Date/timePositionNaut miles runAvg speedWind from/ knotsBaromVisibWave heightAir tempDewpointWater temp
2017-Oct-08 07:26N 34°37' E 134°58'4 8.5
2017-Oct-08 06:59N 34°37' E 135°02'4 9.2
2017-Oct-08 06:30N 34°35' E 135°08'611.7
2017-Oct-08 06:00N 34°35' E 135°15'611.4
2017-Oct-08 05:29N 34°33' E 135°22'3 5.7
2017-Oct-08 04:58N 34°33' E 135°25'0 0.1
2017-Oct-07 22:23N 34°33' E 135°26'2 4.7
2017-Oct-07 21:59N 34°34' E 135°24'0 0.3
2017-Oct-07 20:33N 34°34' E 135°23'0 0.0
2017-Oct-07 20:27N 34°34' E 135°23'0 0.0
2017-Oct-07 19:57N 34°34' E 135°23'0 0.0
2017-Oct-07 19:27N 34°34' E 135°23'0 0.0
2017-Oct-07 18:39N 34°34' E 135°23'0 0.0
2017-Oct-07 18:27N 34°34' E 135°23'0 0.0
2017-Oct-07 17:57N 34°34' E 135°23'0 0.0
2017-Oct-07 17:27N 34°34' E 135°23'0 0.0
2017-Oct-07 16:57N 34°34' E 135°23'0 0.0
2017-Oct-07 16:21N 34°34' E 135°23'0 0.0
2017-Oct-07 15:51N 34°34' E 135°23'0 0.0
2017-Oct-07 15:27N 34°34' E 135°23'0 0.0
2017-Oct-07 13:51N 34°34' E 135°23'0 0.0
2017-Oct-07 13:15N 34°34' E 135°23'0 0.0
2017-Oct-07 07:55N 34°34' E 135°23'1 2.8
2017-Oct-07 07:30N 34°34' E 135°22'612.7
2017-Oct-07 07:01N 34°34' E 135°14'612.7
2017-Oct-07 06:30N 34°35' E 135°06'  
Track history (hours):
 
Tides and Currents Weather Stations Pressure Air Temp Water Temp Dewpoint Dewpoint Depression Visibility Wind Speed Wind Dir Waves Ship Positions

Kyokaimaru No.75

Last reported at 2017-Oct-08 07:26 UTC. Time now 2017-Oct-20 01:30 UTC.
Position N 34°37' E 134°58'.
Warning: this ship's position is 11 days out of date.

Length 68 m; draft 3.8 m.

Type: Tanker. MMSI: 431400692.

Date/timePositionNaut miles runAvg speedWind from/ knotsBaromVisibWave heightAir tempDewpointWater temp
2017-Oct-08 07:26N 34°37' E 134°58'4 8.5
2017-Oct-08 06:59N 34°37' E 135°02'4 9.2
2017-Oct-08 06:30N 34°35' E 135°08'611.7
2017-Oct-08 06:00N 34°35' E 135°15'611.4
2017-Oct-08 05:29N 34°33' E 135°22'3 5.7
2017-Oct-08 04:58N 34°33' E 135°25'0 0.1
2017-Oct-07 22:23N 34°33' E 135°26'2 4.7
2017-Oct-07 21:59N 34°34' E 135°24'0 0.3
2017-Oct-07 20:33N 34°34' E 135°23'0 0.0
2017-Oct-07 20:27N 34°34' E 135°23'0 0.0
2017-Oct-07 19:57N 34°34' E 135°23'0 0.0
2017-Oct-07 19:27N 34°34' E 135°23'0 0.0
2017-Oct-07 18:39N 34°34' E 135°23'0 0.0
2017-Oct-07 18:27N 34°34' E 135°23'0 0.0
2017-Oct-07 17:57N 34°34' E 135°23'0 0.0
2017-Oct-07 17:27N 34°34' E 135°23'0 0.0
2017-Oct-07 16:57N 34°34' E 135°23'0 0.0
2017-Oct-07 16:21N 34°34' E 135°23'0 0.0
2017-Oct-07 15:51N 34°34' E 135°23'0 0.0
2017-Oct-07 15:27N 34°34' E 135°23'0 0.0
2017-Oct-07 13:51N 34°34' E 135°23'0 0.0
2017-Oct-07 13:15N 34°34' E 135°23'0 0.0
2017-Oct-07 07:55N 34°34' E 135°23'1 2.8
2017-Oct-07 07:30N 34°34' E 135°22'612.7
2017-Oct-07 07:01N 34°34' E 135°14'612.7
2017-Oct-07 06:30N 34°35' E 135°06'  

Dump ship's entire track history